Portada
METAR-TAF:

METAR-TAF

Aeroports :

Tozeur, Tunísia

Aeroport Internacional de Tozeur

latitud: 33-55N, longitud: 008-06E, altitud: 87 m

Observació

L'informe es va fer fa 34 minuts, a les 21:00 UTC
Vent 4 kt del Oest
Temperatura 24°C
Humitat 27%
Pressió 1016 hPa
Visibilitat 10 km o més
sense núvols per sota de 1500 mi sense presència de cumulonimbus.

METAR: DTTZ 222100Z 26004KT CAVOK 24/04 Q1016 NOSIG

Hora: 22:34 (21:34 UTC)

Pronòstic

L'informe es va fer fa 4 hores i 24 minuts, a les 17:10 UTC
Pronòstic vàlid del 22 a les 18 UTC al 23 a les 18 UTC
Vent 6 kt del Oest/Sud-Oest
Visibilitat 10 km o més
sense núvols per sota de 1500 mi sense presència de cumulonimbus.

TAF: DTTZ 221710Z 2218/2318 24006KT CAVOK

Observacions i pronòstics meteorològics de més de 4000 aeroports (METAR i TAF).

Les estacions disponibles són els punts grocs i vermells al mapa.

Posi el ratolí al punt desitjat per veure el nom de l'estació.

Feu clic per veure les observacions i els pronòstics meteorològics.

Per canviar el mapa: feu clic els botons verds amb una creu de color negre per apropar; al botó verd amb un guió per allunyar la imatge; o en les fletxes verdes per a mapes adjacents.


METAR-TAF: